Hovedside
METAR-TAF:

METAR-TAF

Lufthavner :

Bromma lufthavn

Stockholm, Sverige

breddegrad: 59-21N, lengdegrad: 017-57E, høyde over havet: 14 m

Gjeldene værobservasjon

Denne rapporten ble laget for 31 minutter siden, klokken 06:20 UTC
Vind 7 kt fra Vest
Temperatur 5°C
Luftfuktighet 60%
Trykk 1005 hPa
Sikt 10 km eller mer
ingen skyer under 1500 m og ingen bygeskyer

METAR: ESSB 010620Z 27007KT CAVOK 05/M02 Q1005

Tid: 08:51 (06:51 UTC)

Varsel

Denne rapporten ble laget for 1 time og 21 minutter siden, klokken 05:30 UTC
Varsel gyldig fra 01. klokken 06 UTC til 01. klokken 15 UTC
Vind 5 kt fra Vest
Sikt 10 km eller mer
ingen skyer under 1500 m og ingen bygeskyer
Midlertidig
fra 01. klokken 08 UTC til 01. klokken 15 UTC
Vind 15 kt fra Vest med vindkast opp mot 25 kt

TAF: ESSB 010530Z 0106/0115 27005KT CAVOK TEMPO 0108/0115 27015G25KT

Værobservasjoner og værvarsel for over 4000 flyplasser (METAR- og TAF-rapporter).

Tilgjengelige stasjoner er representert av de røde og gule prikkene på kartet.

Hold musepekeren over prikken for å se navnet på stasjonen.

Klikk så for å se værobservasjoner og -varsler.

For å forandre kartet kan du klikke på den grønne knappen med svart kryss for å zoome inn, på den grønne knappen med strek for å zoome ut, eller på de grønne pilene for å se tilstøtende kart.


METAR-TAF: